createdAt,value
2018-04-10T00:00:05.959Z,990.77
2018-04-10T00:00:46.495Z,990.76
2018-04-10T00:01:26.939Z,990.79
2018-04-10T00:02:07.490Z,990.79
2018-04-10T00:02:47.985Z,990.79
2018-04-10T00:03:28.487Z,990.81
2018-04-10T00:04:09.035Z,990.8
2018-04-10T00:04:49.520Z,990.78
2018-04-10T00:05:29.928Z,990.77
2018-04-10T00:06:10.488Z,990.79
2018-04-10T00:06:50.988Z,990.75
2018-04-10T00:07:31.457Z,990.76
2018-04-10T00:08:11.924Z,990.75
2018-04-10T00:08:52.496Z,990.79
2018-04-10T00:09:32.975Z,990.76
2018-04-10T00:10:13.451Z,990.77
2018-04-10T00:10:53.919Z,990.77
2018-04-10T00:11:34.395Z,990.79
2018-04-10T00:12:14.913Z,990.79
2018-04-10T00:12:55.364Z,990.79
2018-04-10T00:13:35.874Z,990.81
2018-04-10T00:14:16.350Z,990.77
2018-04-10T00:14:56.877Z,990.73
2018-04-10T00:15:37.386Z,990.8
2018-04-10T00:16:17.851Z,990.69
2018-04-10T00:16:58.358Z,990.8
2018-04-10T00:17:38.894Z,990.77
2018-04-10T00:18:19.357Z,990.75
2018-04-10T00:18:59.823Z,990.78
2018-04-10T00:19:40.333Z,990.79
2018-04-10T00:20:20.859Z,990.77
2018-04-10T00:21:01.312Z,990.78
2018-04-10T00:21:41.787Z,990.76
2018-04-10T00:22:22.300Z,990.77
2018-04-10T00:23:02.809Z,990.76
2018-04-10T00:23:43.259Z,990.73
2018-04-10T00:24:23.757Z,990.75
2018-04-10T00:25:04.245Z,990.83
2018-04-10T00:25:44.745Z,990.79
2018-04-10T00:26:25.253Z,990.82
2018-04-10T00:27:05.789Z,990.79
2018-04-10T00:27:46.260Z,990.76
2018-04-10T00:28:26.773Z,990.8
2018-04-10T00:29:07.248Z,990.8
2018-04-10T00:29:47.739Z,990.74
2018-04-10T00:30:28.282Z,990.76
2018-04-10T00:31:08.725Z,990.8
2018-04-10T00:31:49.407Z,990.73
2018-04-10T00:32:29.881Z,990.75
2018-04-10T00:33:10.389Z,990.75
2018-04-10T00:33:50.898Z,990.76
2018-04-10T00:34:31.350Z,990.76
2018-04-10T00:35:11.835Z,990.77
2018-04-10T00:35:52.328Z,990.83
2018-04-10T00:36:32.781Z,990.76
2018-04-10T00:37:13.351Z,990.86
2018-04-10T00:37:53.880Z,990.83
2018-04-10T00:38:34.378Z,990.89
2018-04-10T00:39:14.893Z,990.86
2018-04-10T00:39:55.377Z,990.87
2018-04-10T00:40:35.811Z,990.89
2018-04-10T00:41:16.338Z,990.9
2018-04-10T00:41:56.891Z,990.9
2018-04-10T00:42:37.353Z,990.82
2018-04-10T00:43:17.823Z,990.86
2018-04-10T00:43:58.527Z,990.83
2018-04-10T00:44:39.041Z,990.78
2018-04-10T00:45:19.525Z,990.81
2018-04-10T00:46:00.027Z,990.76
2018-04-10T00:46:40.524Z,990.76
2018-04-10T00:47:21.042Z,990.79
2018-04-10T00:48:01.526Z,990.7
2018-04-10T00:48:42.092Z,990.74
2018-04-10T00:49:22.554Z,990.74
2018-04-10T00:50:03.034Z,990.79
2018-04-10T00:50:43.574Z,990.75
2018-04-10T00:51:24.072Z,990.71
2018-04-10T00:52:04.592Z,990.74
2018-04-10T00:52:45.090Z,990.76
2018-04-10T00:53:25.569Z,990.72
2018-04-10T00:54:06.085Z,990.75
2018-04-10T00:54:46.546Z,990.72
2018-04-10T00:55:27.030Z,990.75
2018-04-10T00:56:07.565Z,990.75
2018-04-10T00:56:48.086Z,990.74
2018-04-10T00:57:28.787Z,990.76
2018-04-10T00:58:09.327Z,990.71
2018-04-10T00:58:49.822Z,990.71
2018-04-10T00:59:30.297Z,990.79
2018-04-10T01:00:10.793Z,990.74
2018-04-10T01:00:51.273Z,990.74
2018-04-10T01:01:31.768Z,990.78
2018-04-10T01:02:12.240Z,990.78
2018-04-10T01:02:52.735Z,990.72
2018-04-10T01:03:33.226Z,990.75
2018-04-10T01:04:13.726Z,990.79
2018-04-10T01:04:54.195Z,990.78
2018-04-10T01:05:34.759Z,990.78
2018-04-10T01:06:15.202Z,990.83
2018-04-10T01:06:55.735Z,990.8
2018-04-10T01:07:36.227Z,990.82
2018-04-10T01:08:16.691Z,990.85
2018-04-10T01:08:57.167Z,990.84
2018-04-10T01:09:37.655Z,990.84
2018-04-10T01:10:18.192Z,990.85
2018-04-10T01:10:58.657Z,990.84
2018-04-10T01:11:39.159Z,990.87
2018-04-10T01:12:19.661Z,990.92
2018-04-10T01:13:00.162Z,990.94
2018-04-10T01:13:40.622Z,990.87
2018-04-10T01:14:21.119Z,990.91
2018-04-10T01:15:01.616Z,990.91
2018-04-10T01:15:42.104Z,990.88
2018-04-10T01:16:22.608Z,990.9
2018-04-10T01:17:03.066Z,990.9
2018-04-10T01:17:43.545Z,990.84
2018-04-10T01:18:24.082Z,990.86
2018-04-10T01:19:04.561Z,990.87
2018-04-10T01:19:45.067Z,990.89
2018-04-10T01:20:25.568Z,990.84
2018-04-10T01:21:06.043Z,990.87
2018-04-10T01:21:46.510Z,990.91
2018-04-10T01:22:26.967Z,990.86
2018-04-10T01:23:07.472Z,990.87
2018-04-10T01:23:48.000Z,990.87
2018-04-10T01:24:28.508Z,990.89
2018-04-10T01:25:09.026Z,990.88
2018-04-10T01:25:49.491Z,990.84
2018-04-10T01:26:29.998Z,990.86
2018-04-10T01:27:10.430Z,990.84
2018-04-10T01:27:50.996Z,990.86
2018-04-10T01:28:31.491Z,990.88
2018-04-10T01:29:11.947Z,990.87
2018-04-10T01:29:52.448Z,990.9
2018-04-10T01:30:32.939Z,990.87
2018-04-10T01:31:13.433Z,990.85
2018-04-10T01:31:53.923Z,990.87
2018-04-10T01:32:34.437Z,990.87
2018-04-10T01:33:14.936Z,990.92
2018-04-10T01:33:55.406Z,990.83
2018-04-10T01:34:35.940Z,990.9
2018-04-10T01:35:16.391Z,990.81
2018-04-10T01:35:56.922Z,990.83
2018-04-10T01:36:37.415Z,990.84
2018-04-10T01:37:17.939Z,990.81
2018-04-10T01:37:58.442Z,990.83
2018-04-10T01:38:38.887Z,990.83
2018-04-10T01:39:19.388Z,990.81
2018-04-10T01:39:59.877Z,990.83
2018-04-10T01:40:40.531Z,990.78
2018-04-10T01:41:21.012Z,990.77
2018-04-10T01:42:01.516Z,990.78
2018-04-10T01:42:42.021Z,990.73
2018-04-10T01:43:22.508Z,990.8
2018-04-10T01:44:02.984Z,990.78
2018-04-10T01:44:43.489Z,990.75
2018-04-10T01:45:23.994Z,990.74
2018-04-10T01:46:04.513Z,990.73
2018-04-10T01:46:44.986Z,990.74
2018-04-10T01:47:25.504Z,990.79
2018-04-10T01:48:05.962Z,990.78
2018-04-10T01:48:46.461Z,990.79
2018-04-10T01:49:26.936Z,990.75
2018-04-10T01:51:25.433Z,990.77
2018-04-10T01:52:05.947Z,990.76
2018-04-10T01:52:46.425Z,990.77
2018-04-10T01:53:26.929Z,990.77
2018-04-10T01:55:57.165Z,990.74
2018-04-10T01:56:37.680Z,990.73
2018-04-10T01:57:18.205Z,990.75
2018-04-10T01:57:58.750Z,990.73
2018-04-10T01:58:39.206Z,990.7
2018-04-10T01:59:19.676Z,990.74
2018-04-10T02:00:00.156Z,990.72
2018-04-10T02:00:40.658Z,990.75
2018-04-10T02:01:21.089Z,990.72
2018-04-10T02:02:01.622Z,990.76
2018-04-10T02:02:42.112Z,990.73
2018-04-10T02:03:22.619Z,990.67
2018-04-10T02:04:03.080Z,990.69
2018-04-10T02:04:43.555Z,990.67
2018-04-10T02:05:24.047Z,990.62
2018-04-10T02:06:04.543Z,990.63
2018-04-10T02:06:45.014Z,990.64
2018-04-10T02:07:25.496Z,990.61
2018-04-10T02:08:05.995Z,990.61
2018-04-10T02:08:46.486Z,990.63
2018-04-10T02:09:26.954Z,990.62
2018-04-10T02:10:07.408Z,990.55
2018-04-10T02:10:47.904Z,990.6
2018-04-10T02:11:28.414Z,990.59
2018-04-10T02:12:08.878Z,990.62
2018-04-10T02:12:49.348Z,990.59
2018-04-10T02:13:29.878Z,990.61
2018-04-10T02:14:10.337Z,990.63
2018-04-10T02:14:50.852Z,990.59
2018-04-10T02:15:31.380Z,990.55
2018-04-10T02:16:11.841Z,990.57
2018-04-10T02:16:52.337Z,990.56
2018-04-10T02:17:32.849Z,990.6
2018-04-10T02:18:13.305Z,990.62
2018-04-10T02:18:53.786Z,990.62
2018-04-10T02:19:34.241Z,990.6
2018-04-10T02:20:14.732Z,990.65
2018-04-10T02:20:55.280Z,990.61
2018-04-10T02:21:35.705Z,990.63
2018-04-10T02:22:16.206Z,990.62
2018-04-10T02:22:56.740Z,990.61
2018-04-10T02:23:37.220Z,990.59
2018-04-10T02:24:17.729Z,990.61
2018-04-10T02:24:58.221Z,990.52
2018-04-10T02:25:38.776Z,990.56
2018-04-10T02:26:19.287Z,990.6
2018-04-10T02:26:59.769Z,990.56
2018-04-10T02:27:40.296Z,990.58
2018-04-10T02:28:20.750Z,990.58
2018-04-10T02:29:01.217Z,990.61
2018-04-10T02:29:41.747Z,990.6
2018-04-10T02:30:22.236Z,990.64
2018-04-10T02:31:02.744Z,990.65
2018-04-10T02:31:43.239Z,990.64
2018-04-10T02:32:23.772Z,990.66
2018-04-10T02:33:04.240Z,990.64
2018-04-10T02:33:44.777Z,990.66
2018-04-10T02:34:25.297Z,990.65
2018-04-10T02:35:05.749Z,990.68
2018-04-10T02:35:46.214Z,990.72
2018-04-10T02:36:26.787Z,990.69
2018-04-10T02:37:07.226Z,990.66
2018-04-10T02:37:47.755Z,990.64
2018-04-10T02:38:28.274Z,990.62
2018-04-10T02:39:08.759Z,990.66
2018-04-10T02:39:49.217Z,990.65
2018-04-10T02:40:29.711Z,990.64
2018-04-10T02:41:10.222Z,990.66
2018-04-10T02:41:50.724Z,990.64
2018-04-10T02:42:31.257Z,990.63
2018-04-10T02:43:11.759Z,990.6
2018-04-10T02:43:52.300Z,990.62
2018-04-10T02:44:32.758Z,990.59
2018-04-10T02:45:13.263Z,990.63
2018-04-10T02:45:53.744Z,990.56
2018-04-10T02:46:34.170Z,990.62
2018-04-10T02:47:14.677Z,990.6
2018-04-10T02:47:55.206Z,990.57
2018-04-10T02:48:35.721Z,990.58
2018-04-10T02:49:16.168Z,990.56
2018-04-10T02:49:56.675Z,990.59
2018-04-10T02:50:37.127Z,990.59
2018-04-10T02:51:17.611Z,990.59
2018-04-10T02:51:58.101Z,990.56
2018-04-10T02:52:38.628Z,990.59
2018-04-10T02:53:19.052Z,990.58
2018-04-10T02:53:59.584Z,990.64
2018-04-10T02:54:40.085Z,990.6
2018-04-10T02:55:20.593Z,990.58
2018-04-10T02:56:01.063Z,990.67
2018-04-10T02:56:41.570Z,990.64
2018-04-10T02:57:22.054Z,990.64
2018-04-10T02:58:02.527Z,990.65
2018-04-10T02:58:43.039Z,990.63
2018-04-10T02:59:27.954Z,990.67
2018-04-10T03:00:08.453Z,990.62
2018-04-10T03:00:48.991Z,990.6
2018-04-10T03:01:29.457Z,990.58
2018-04-10T03:02:09.983Z,990.58
2018-04-10T03:02:50.418Z,990.59
2018-04-10T03:03:30.953Z,990.54
2018-04-10T03:04:11.374Z,990.59
2018-04-10T03:04:51.887Z,990.59
2018-04-10T03:05:32.495Z,990.57
2018-04-10T03:06:12.915Z,990.55
2018-04-10T03:06:53.454Z,990.6
2018-04-10T03:07:34.009Z,990.58
2018-04-10T03:08:14.405Z,990.55
2018-04-10T03:08:54.934Z,990.56
2018-04-10T03:09:35.421Z,990.56
2018-04-10T03:10:15.925Z,990.62
2018-04-10T03:10:56.447Z,990.62
2018-04-10T03:11:36.946Z,990.58
2018-04-10T03:12:17.425Z,990.63
2018-04-10T03:12:57.894Z,990.67
2018-04-10T03:13:38.379Z,990.67
2018-04-10T03:14:18.861Z,990.64
2018-04-10T03:14:59.332Z,990.63
2018-04-10T03:15:39.845Z,990.65
2018-04-10T03:16:20.318Z,990.65
2018-04-10T03:17:00.817Z,990.63
2018-04-10T03:17:41.353Z,990.69
2018-04-10T03:18:21.795Z,990.66
2018-04-10T03:19:02.270Z,990.6
2018-04-10T03:19:42.792Z,990.63
2018-04-10T03:20:23.379Z,990.63
2018-04-10T03:21:04.273Z,990.59
2018-04-10T03:21:44.543Z,990.57
2018-04-10T03:22:25.040Z,990.61
2018-04-10T03:23:05.570Z,990.58
2018-04-10T03:23:46.000Z,990.58
2018-04-10T03:24:26.520Z,990.53
2018-04-10T03:25:07.067Z,990.55
2018-04-10T03:25:47.530Z,990.5
2018-04-10T03:26:28.024Z,990.53
2018-04-10T03:27:08.530Z,990.48
2018-04-10T03:27:49.023Z,990.45
2018-04-10T03:28:29.580Z,990.41
2018-04-10T03:29:10.032Z,990.46
2018-04-10T03:29:50.536Z,990.46
2018-04-10T03:30:31.028Z,990.44
2018-04-10T03:31:11.480Z,990.42
2018-04-10T03:31:51.973Z,990.42
2018-04-10T03:32:32.475Z,990.4
2018-04-10T03:33:12.962Z,990.38
2018-04-10T03:33:53.449Z,990.36
2018-04-10T03:34:33.953Z,990.36
2018-04-10T03:35:14.490Z,990.31
2018-04-10T03:35:54.964Z,990.34
2018-04-10T03:36:35.492Z,990.32
2018-04-10T03:37:15.971Z,990.32
2018-04-10T03:37:56.619Z,990.36
2018-04-10T03:38:37.136Z,990.33
2018-04-10T03:39:17.577Z,990.31
2018-04-10T03:39:58.080Z,990.3
2018-04-10T03:40:38.571Z,990.27
2018-04-10T03:41:19.056Z,990.29
2018-04-10T03:41:59.518Z,990.26
2018-04-10T03:42:40.167Z,990.26
2018-04-10T03:43:20.573Z,990.22
2018-04-10T03:44:01.055Z,990.15
2018-04-10T03:44:42.034Z,990.19
2018-04-10T03:45:21.981Z,990.13
2018-04-10T03:46:02.499Z,990.09
2018-04-10T03:46:43.158Z,990.09
2018-04-10T03:47:23.626Z,990.04
2018-04-10T03:48:04.121Z,990.04
2018-04-10T03:48:44.605Z,990
2018-04-10T03:49:25.070Z,989.95
2018-04-10T03:50:05.652Z,989.95
2018-04-10T03:50:46.081Z,989.97
2018-04-10T03:51:26.590Z,989.95
2018-04-10T03:52:07.051Z,990
2018-04-10T03:52:47.718Z,989.99
2018-04-10T03:53:28.221Z,989.93
2018-04-10T03:54:08.720Z,989.97
2018-04-10T03:54:49.241Z,989.99
2018-04-10T03:55:29.717Z,989.96
2018-04-10T03:56:10.224Z,989.96
2018-04-10T03:56:50.772Z,989.93
2018-04-10T03:57:31.219Z,989.96
2018-04-10T03:58:11.772Z,989.96
2018-04-10T03:58:52.255Z,989.96
2018-04-10T03:59:32.765Z,989.91
2018-04-10T04:00:13.273Z,989.91
2018-04-10T04:00:53.762Z,989.88
2018-04-10T04:01:34.363Z,989.9
2018-04-10T04:02:14.913Z,989.92
2018-04-10T04:02:55.387Z,989.86
2018-04-10T04:03:35.922Z,989.82
2018-04-10T04:04:16.417Z,989.83
2018-04-10T04:04:56.943Z,989.78
2018-04-10T04:05:37.441Z,989.79
2018-04-10T04:06:17.934Z,989.77
2018-04-10T04:06:58.453Z,989.73
2018-04-10T04:07:38.906Z,989.72
2018-04-10T04:08:19.384Z,989.69
2018-04-10T04:08:59.926Z,989.65
2018-04-10T04:09:40.382Z,989.62
2018-04-10T04:10:20.929Z,989.63
2018-04-10T04:11:01.408Z,989.59
2018-04-10T04:11:41.913Z,989.59
2018-04-10T04:12:22.415Z,989.62
2018-04-10T04:13:02.910Z,989.62
2018-04-10T04:13:43.443Z,989.63
2018-04-10T04:14:23.897Z,989.65
2018-04-10T04:15:04.379Z,989.6
2018-04-10T04:15:44.887Z,989.69
2018-04-10T04:16:25.385Z,989.68
2018-04-10T04:17:05.880Z,989.7
2018-04-10T04:17:46.335Z,989.72
2018-04-10T04:18:26.836Z,989.71
2018-04-10T04:19:07.347Z,989.73
2018-04-10T04:19:47.842Z,989.72
2018-04-10T04:20:28.335Z,989.74
2018-04-10T04:21:08.832Z,989.76
2018-04-10T04:21:49.294Z,989.77
2018-04-10T04:22:29.801Z,989.75
2018-04-10T04:23:10.291Z,989.78
2018-04-10T04:23:50.740Z,989.77
2018-04-10T04:24:31.298Z,989.77
2018-04-10T04:25:11.745Z,989.78
2018-04-10T04:25:52.248Z,989.8
2018-04-10T04:26:32.742Z,989.81
2018-04-10T04:27:13.254Z,989.82
2018-04-10T04:27:53.776Z,989.78
2018-04-10T04:28:34.285Z,989.78
2018-04-10T04:29:14.830Z,989.83
2018-04-10T04:29:55.285Z,989.84
2018-04-10T04:30:35.773Z,989.88
2018-04-10T04:31:16.274Z,989.91
2018-04-10T04:31:56.769Z,989.93
2018-04-10T04:32:37.285Z,989.93
2018-04-10T04:33:17.768Z,989.93
2018-04-10T04:33:58.279Z,989.94
2018-04-10T04:34:38.814Z,989.96
2018-04-10T04:35:19.287Z,989.96
2018-04-10T04:35:59.829Z,990.01
2018-04-10T04:36:40.305Z,990.01
2018-04-10T04:37:20.829Z,989.98
2018-04-10T04:38:01.307Z,989.98
2018-04-10T04:38:41.833Z,989.97
2018-04-10T04:39:22.360Z,989.98
2018-04-10T04:40:02.855Z,989.99
2018-04-10T04:40:43.393Z,990
2018-04-10T04:41:23.859Z,989.98
2018-04-10T04:42:04.374Z,990.02
2018-04-10T04:42:44.876Z,990.01
2018-04-10T04:43:25.333Z,989.96
2018-04-10T04:44:05.873Z,989.89
2018-04-10T04:44:46.320Z,989.92
2018-04-10T04:45:26.823Z,989.94
2018-04-10T04:46:07.313Z,989.93
2018-04-10T04:46:47.830Z,989.91
2018-04-10T04:47:28.480Z,989.88
2018-04-10T04:49:57.569Z,989.94
2018-04-10T04:50:38.151Z,989.91
2018-04-10T04:51:18.627Z,989.94
2018-04-10T04:51:59.147Z,989.97
2018-04-10T04:52:39.796Z,989.91
2018-04-10T04:53:20.455Z,989.88
2018-04-10T04:54:00.876Z,989.89
2018-04-10T04:54:41.377Z,989.93
2018-04-10T04:55:21.881Z,989.89
2018-04-10T04:56:02.402Z,989.88
2018-04-10T04:56:42.898Z,989.82
2018-04-10T04:57:23.405Z,989.88
2018-04-10T04:58:03.926Z,989.85
2018-04-10T04:58:44.429Z,989.87
2018-04-10T04:59:24.946Z,989.81
2018-04-10T05:00:05.463Z,989.88
2018-04-10T05:00:45.992Z,989.89
2018-04-10T05:01:26.474Z,989.88
2018-04-10T05:02:07.012Z,989.95
2018-04-10T05:02:47.501Z,989.91
2018-04-10T05:03:28.050Z,989.91
2018-04-10T05:04:08.492Z,989.97
2018-04-10T05:04:48.991Z,989.98
2018-04-10T05:05:29.512Z,989.95
2018-04-10T05:06:10.034Z,989.96
2018-04-10T05:06:50.548Z,989.97
2018-04-10T05:07:31.066Z,989.97
2018-04-10T05:08:11.602Z,990.01
2018-04-10T05:08:52.109Z,990.03
2018-04-10T05:09:32.628Z,989.99
2018-04-10T05:10:13.139Z,990.04
2018-04-10T05:10:53.659Z,989.98
2018-04-10T05:11:34.187Z,990.01
2018-04-10T05:12:14.697Z,990.06
2018-04-10T05:12:55.233Z,990
2018-04-10T05:13:35.720Z,990
2018-04-10T05:14:16.200Z,990.01
2018-04-10T05:14:56.736Z,990.03
2018-04-10T05:15:37.247Z,989.97
2018-04-10T05:16:17.813Z,990
2018-04-10T05:16:58.522Z,990.02
2018-04-10T05:17:39.114Z,990.02
2018-04-10T05:18:19.553Z,990.01
2018-04-10T05:19:00.046Z,990.05
2018-04-10T05:19:40.549Z,990.01
2018-04-10T05:20:21.092Z,990.05
2018-04-10T05:21:01.543Z,990.11
2018-04-10T05:21:42.047Z,990.05
2018-04-10T05:22:22.534Z,990.1
2018-04-10T05:23:03.104Z,990.12
2018-04-10T05:23:43.611Z,990.08
2018-04-10T05:24:24.105Z,990.12
2018-04-10T05:25:04.595Z,990.19
2018-04-10T05:25:45.129Z,990.22
2018-04-10T05:26:25.599Z,990.27
2018-04-10T05:27:06.200Z,990.31
2018-04-10T05:28:59.311Z,990.33
2018-04-10T05:29:39.822Z,990.37
2018-04-10T05:30:20.378Z,990.38
2018-04-10T05:31:00.901Z,990.36
2018-04-10T05:31:41.395Z,990.4
2018-04-10T05:32:21.914Z,990.36
2018-04-10T05:33:02.436Z,990.36
2018-04-10T05:33:42.952Z,990.39
2018-04-10T05:34:23.788Z,990.37
2018-04-10T05:35:04.413Z,990.4
2018-04-10T05:35:44.985Z,990.39
2018-04-10T05:36:25.457Z,990.37
2018-04-10T05:37:06.053Z,990.4
2018-04-10T05:37:46.492Z,990.43
2018-04-10T05:38:27.000Z,990.4
2018-04-10T05:39:07.526Z,990.41
2018-04-10T05:39:48.035Z,990.42
2018-04-10T05:40:28.543Z,990.46
2018-04-10T05:41:09.132Z,990.46
2018-04-10T05:41:49.647Z,990.5
2018-04-10T05:42:30.240Z,990.46
2018-04-10T05:43:10.712Z,990.49
2018-04-10T05:43:51.223Z,990.49
2018-04-10T05:44:31.753Z,990.53
2018-04-10T05:45:12.269Z,990.58
2018-04-10T05:45:52.794Z,990.55
2018-04-10T05:46:33.311Z,990.54
2018-04-10T05:47:13.831Z,990.54
2018-04-10T05:47:54.346Z,990.57
2018-04-10T05:48:34.873Z,990.55
2018-04-10T05:49:15.391Z,990.54
2018-04-10T05:49:55.895Z,990.56
2018-04-10T05:50:36.409Z,990.57
2018-04-10T05:51:16.912Z,990.56
2018-04-10T05:51:57.560Z,990.58
2018-04-10T05:52:38.059Z,990.57
2018-04-10T05:53:18.563Z,990.6
2018-04-10T05:53:59.099Z,990.63
2018-04-10T05:54:39.608Z,990.64
2018-04-10T05:55:20.159Z,990.6
2018-04-10T05:56:00.688Z,990.62
2018-04-10T05:56:41.214Z,990.65
2018-04-10T05:57:21.772Z,990.63
2018-04-10T05:58:02.363Z,990.64
2018-04-10T05:58:42.745Z,990.63
2018-04-10T05:59:23.260Z,990.62
2018-04-10T06:00:03.764Z,990.69
2018-04-10T06:00:44.293Z,990.66
2018-04-10T06:01:24.809Z,990.71
2018-04-10T06:02:05.351Z,990.71
2018-04-10T06:02:45.804Z,990.76
2018-04-10T06:03:26.309Z,990.74
2018-04-10T06:04:06.820Z,990.81
2018-04-10T06:04:47.332Z,990.79
2018-04-10T06:05:27.854Z,990.77
2018-04-10T06:06:08.380Z,990.82
2018-04-10T06:06:48.879Z,990.79
2018-04-10T06:07:29.402Z,990.8
2018-04-10T06:08:09.944Z,990.85
2018-04-10T06:08:50.490Z,990.86
2018-04-10T06:09:30.944Z,990.87
2018-04-10T06:10:11.621Z,990.86
2018-04-10T06:10:52.137Z,990.85
2018-04-10T06:11:32.662Z,990.87
2018-04-10T06:12:13.146Z,990.9
2018-04-10T06:12:53.668Z,990.88
2018-04-10T06:13:34.222Z,990.85
2018-04-10T06:14:14.694Z,990.9
2018-04-10T06:14:55.249Z,990.93
2018-04-10T06:15:35.802Z,990.88
2018-04-10T06:16:16.371Z,990.92
2018-04-10T06:16:56.868Z,990.85
2018-04-10T06:17:37.346Z,990.91
2018-04-10T06:18:17.821Z,990.87
2018-04-10T06:18:58.292Z,990.91
2018-04-10T06:19:38.803Z,990.9
2018-04-10T06:20:19.303Z,990.91
2018-04-10T06:20:59.775Z,990.87
2018-04-10T06:21:40.272Z,990.88
2018-04-10T06:22:20.757Z,990.83
2018-04-10T06:23:01.409Z,990.82
2018-04-10T06:23:41.797Z,990.83
2018-04-10T06:24:22.287Z,990.8
2018-04-10T06:25:02.793Z,990.81
2018-04-10T06:25:43.229Z,990.82
2018-04-10T06:26:23.754Z,990.81
2018-04-10T06:27:04.269Z,990.82
2018-04-10T06:27:44.745Z,990.84
2018-04-10T06:28:25.246Z,990.82
2018-04-10T06:29:05.741Z,990.83
2018-04-10T06:29:46.234Z,990.89
2018-04-10T06:30:26.707Z,990.85
2018-04-10T06:31:07.240Z,990.86
2018-04-10T06:31:47.726Z,990.86
2018-04-10T06:32:28.226Z,990.83
2018-04-10T06:33:08.668Z,990.84
2018-04-10T06:33:49.143Z,990.89
2018-04-10T06:34:29.805Z,990.87
2018-04-10T06:35:10.321Z,990.83
2018-04-10T06:35:50.841Z,990.82
2018-04-10T06:36:31.312Z,990.8
2018-04-10T06:37:11.806Z,990.82
2018-04-10T06:37:52.286Z,990.84
2018-04-10T06:38:32.780Z,990.79
2018-04-10T06:39:13.257Z,990.78
2018-04-10T06:39:53.764Z,990.78
2018-04-10T06:40:34.246Z,990.78
2018-04-10T06:41:14.783Z,990.75
2018-04-10T06:41:55.238Z,990.72
2018-04-10T06:42:35.730Z,990.73
2018-04-10T06:43:16.271Z,990.68
2018-04-10T06:43:56.733Z,990.71
2018-04-10T06:44:37.262Z,990.71
2018-04-10T06:45:17.739Z,990.71
2018-04-10T06:45:58.264Z,990.74
2018-04-10T06:46:38.755Z,990.71
2018-04-10T06:47:19.231Z,990.68
2018-04-10T06:47:59.727Z,990.68
2018-04-10T06:48:40.210Z,990.68
2018-04-10T06:49:20.693Z,990.64
2018-04-10T06:50:01.181Z,990.65
2018-04-10T06:50:41.746Z,990.66
2018-04-10T06:51:22.171Z,990.64
2018-04-10T06:52:02.675Z,990.63
2018-04-10T06:52:43.210Z,990.62
2018-04-10T06:53:23.717Z,990.6
2018-04-10T06:54:04.221Z,990.6
2018-04-10T06:54:44.745Z,990.63
2018-04-10T06:55:25.263Z,990.58
2018-04-10T06:56:05.771Z,990.53
2018-04-10T06:56:46.297Z,990.56
2018-04-10T06:57:26.831Z,990.59
2018-04-10T06:58:07.368Z,990.55
2018-04-10T06:58:47.863Z,990.58
2018-04-10T06:59:28.381Z,990.58
2018-04-10T07:00:08.910Z,990.54
2018-04-10T07:00:49.445Z,990.56
2018-04-10T07:01:30.118Z,990.51
2018-04-10T07:02:10.633Z,990.57
2018-04-10T07:02:51.182Z,990.55
2018-04-10T07:03:31.727Z,990.53
2018-04-10T07:04:12.256Z,990.53
2018-04-10T07:04:52.766Z,990.55
2018-04-10T07:05:33.282Z,990.52
2018-04-10T07:06:13.795Z,990.53
2018-04-10T07:06:54.313Z,990.54
2018-04-10T07:07:34.839Z,990.53
2018-04-10T07:08:15.346Z,990.58
2018-04-10T07:08:55.861Z,990.57
2018-04-10T07:09:36.373Z,990.53
2018-04-10T07:10:16.906Z,990.55
2018-04-10T07:10:57.412Z,990.58
2018-04-10T07:11:37.940Z,990.58
2018-04-10T07:12:18.456Z,990.58
2018-04-10T07:12:58.971Z,990.59
2018-04-10T07:13:39.488Z,990.65
2018-04-10T07:14:20.004Z,990.6
2018-04-10T07:15:00.519Z,990.56
2018-04-10T07:15:41.041Z,990.62
2018-04-10T07:16:21.629Z,990.62
2018-04-10T07:17:02.111Z,990.57
2018-04-10T07:17:42.628Z,990.54
2018-04-10T07:18:23.148Z,990.54
2018-04-10T07:19:03.688Z,990.48
2018-04-10T07:19:44.205Z,990.43
2018-04-10T07:20:24.729Z,990.44
2018-04-10T07:21:05.252Z,990.4
2018-04-10T07:21:45.800Z,990.4
2018-04-10T07:22:26.339Z,990.43
2018-04-10T07:23:06.837Z,990.37
2018-04-10T07:23:47.388Z,990.35
2018-04-10T07:24:27.868Z,990.36
2018-04-10T07:25:08.366Z,990.34
2018-04-10T07:25:48.875Z,990.32
2018-04-10T07:26:29.377Z,990.34
2018-04-10T07:27:09.905Z,990.36
2018-04-10T07:27:50.422Z,990.34
2018-04-10T07:28:30.958Z,990.29
2018-04-10T07:29:11.477Z,990.36
2018-04-10T07:29:51.994Z,990.37
2018-04-10T07:30:32.507Z,990.39
2018-04-10T07:31:13.021Z,990.39
2018-04-10T07:31:53.543Z,990.42
2018-04-10T07:32:34.058Z,990.43
2018-04-10T07:33:14.584Z,990.45
2018-04-10T07:33:55.080Z,990.5
2018-04-10T07:34:35.584Z,990.45
2018-04-10T07:35:16.114Z,990.45
2018-04-10T07:35:56.672Z,990.52
2018-04-10T07:36:37.181Z,990.48
2018-04-10T07:37:17.713Z,990.52
2018-04-10T07:37:58.222Z,990.51
2018-04-10T07:38:38.739Z,990.56
2018-04-10T07:39:19.247Z,990.59
2018-04-10T07:39:59.769Z,990.5
2018-04-10T07:40:40.345Z,990.59
2018-04-10T07:41:20.830Z,990.5
2018-04-10T07:42:01.364Z,990.61
2018-04-10T07:42:41.904Z,990.55
2018-04-10T07:43:22.417Z,990.54
2018-04-10T07:44:02.942Z,990.49
2018-04-10T07:44:43.448Z,990.5
2018-04-10T07:45:23.968Z,990.51
2018-04-10T07:46:04.496Z,990.51
2018-04-10T07:46:44.998Z,990.46
2018-04-10T07:47:25.528Z,990.41
2018-04-10T07:48:06.034Z,990.42
2018-04-10T07:48:46.555Z,990.4
2018-04-10T07:49:27.129Z,990.4
2018-04-10T07:50:07.658Z,990.37
2018-04-10T07:50:48.166Z,990.4
2018-04-10T07:51:28.724Z,990.4
2018-04-10T07:52:09.265Z,990.41
2018-04-10T07:52:49.780Z,990.4
2018-04-10T07:53:30.547Z,990.45
2018-04-10T07:54:11.074Z,990.41
2018-04-10T07:54:51.596Z,990.44
2018-04-10T07:55:32.103Z,990.46
2018-04-10T07:56:12.623Z,990.51
2018-04-10T07:56:53.143Z,990.51
2018-04-10T07:57:33.659Z,990.52
2018-04-10T07:58:14.173Z,990.59
2018-04-10T07:58:54.693Z,990.58
2018-04-10T07:59:35.217Z,990.64
2018-04-10T08:00:15.722Z,990.65
2018-04-10T08:00:56.249Z,990.61
2018-04-10T08:01:36.788Z,990.66
2018-04-10T08:02:17.304Z,990.67
2018-04-10T08:02:57.834Z,990.68
2018-04-10T08:03:38.389Z,990.67
2018-04-10T08:04:18.922Z,990.66
2018-04-10T08:04:59.445Z,990.73
2018-04-10T08:05:39.964Z,990.72
2018-04-10T08:06:20.484Z,990.69
2018-04-10T08:07:00.966Z,990.71
2018-04-10T08:07:41.466Z,990.73
2018-04-10T08:08:22.005Z,990.72
2018-04-10T08:09:02.474Z,990.72
2018-04-10T08:09:43.004Z,990.72
2018-04-10T08:10:23.461Z,990.74
2018-04-10T08:11:03.984Z,990.8
2018-04-10T08:11:44.514Z,990.69
2018-04-10T08:12:25.029Z,990.76
2018-04-10T08:13:05.563Z,990.75
2018-04-10T08:13:46.094Z,990.78
2018-04-10T08:14:26.712Z,990.78
2018-04-10T08:15:07.241Z,990.73
2018-04-10T08:15:47.686Z,990.79
2018-04-10T08:16:28.204Z,990.81
2018-04-10T08:17:09.413Z,990.8
2018-04-10T08:17:49.931Z,990.81
2018-04-10T08:18:30.458Z,990.8
2018-04-10T08:19:10.968Z,990.77
2018-04-10T08:19:51.482Z,990.77
2018-04-10T08:20:31.986Z,990.72
2018-04-10T08:21:12.496Z,990.76
2018-04-10T08:21:53.015Z,990.75
2018-04-10T08:22:33.529Z,990.72
2018-04-10T08:23:14.050Z,990.77
2018-04-10T08:23:54.569Z,990.72
2018-04-10T08:24:35.078Z,990.69
2018-04-10T08:25:15.628Z,990.75
2018-04-10T08:25:56.183Z,990.74
2018-04-10T08:26:36.628Z,990.72
2018-04-10T08:27:17.091Z,990.71
2018-04-10T08:27:57.652Z,990.65
2018-04-10T08:28:38.091Z,990.69
2018-04-10T08:29:18.625Z,990.66
2018-04-10T08:29:59.095Z,990.65
2018-04-10T08:30:39.739Z,990.64
2018-04-10T08:31:20.295Z,990.64
2018-04-10T08:32:00.811Z,990.65
2018-04-10T08:32:41.323Z,990.65
2018-04-10T08:33:21.852Z,990.66